sensor_id;sensor_type;location;lat;lon;timestamp;temperature;humidity
71206;SHT31;58935;54.498;18.544;2023-09-08T00:01:21;16.64;85.22
71206;SHT31;58935;54.498;18.544;2023-09-08T00:03:47;16.64;85.23
71206;SHT31;58935;54.498;18.544;2023-09-08T00:06:12;16.64;85.24
71206;SHT31;58935;54.498;18.544;2023-09-08T00:08:37;16.63;85.21
71206;SHT31;58935;54.498;18.544;2023-09-08T00:11:03;16.61;85.13
71206;SHT31;58935;54.498;18.544;2023-09-08T00:13:29;16.60;85.13
71206;SHT31;58935;54.498;18.544;2023-09-08T00:15:55;16.60;85.06
71206;SHT31;58935;54.498;18.544;2023-09-08T00:18:20;16.59;85.03
71206;SHT31;58935;54.498;18.544;2023-09-08T00:20:45;16.56;85.03
71206;SHT31;58935;54.498;18.544;2023-09-08T00:23:11;16.55;85.03
71206;SHT31;58935;54.498;18.544;2023-09-08T00:25:36;16.54;85.00
71206;SHT31;58935;54.498;18.544;2023-09-08T00:28:02;16.52;84.93
71206;SHT31;58935;54.498;18.544;2023-09-08T00:30:28;16.51;84.96
71206;SHT31;58935;54.498;18.544;2023-09-08T00:32:53;16.48;84.88
71206;SHT31;58935;54.498;18.544;2023-09-08T00:35:19;16.45;84.98
71206;SHT31;58935;54.498;18.544;2023-09-08T00:37:44;16.43;84.78
71206;SHT31;58935;54.498;18.544;2023-09-08T00:40:09;16.40;84.76
71206;SHT31;58935;54.498;18.544;2023-09-08T00:42:35;16.37;84.80
71206;SHT31;58935;54.498;18.544;2023-09-08T00:45:01;16.33;84.70
71206;SHT31;58935;54.498;18.544;2023-09-08T00:47:27;16.33;84.79
71206;SHT31;58935;54.498;18.544;2023-09-08T00:49:53;16.32;84.80
71206;SHT31;58935;54.498;18.544;2023-09-08T00:52:19;16.30;84.76
71206;SHT31;58935;54.498;18.544;2023-09-08T00:54:44;16.30;84.70
71206;SHT31;58935;54.498;18.544;2023-09-08T00:57:09;16.29;84.72
71206;SHT31;58935;54.498;18.544;2023-09-08T00:59:35;16.29;84.71
71206;SHT31;58935;54.498;18.544;2023-09-08T01:02:01;16.27;84.67
71206;SHT31;58935;54.498;18.544;2023-09-08T01:04:28;16.26;84.57
71206;SHT31;58935;54.498;18.544;2023-09-08T01:06:54;16.23;84.52
71206;SHT31;58935;54.498;18.544;2023-09-08T01:09:23;16.22;84.44
71206;SHT31;58935;54.498;18.544;2023-09-08T01:11:49;16.18;84.38
71206;SHT31;58935;54.498;18.544;2023-09-08T01:14:17;16.16;84.49
71206;SHT31;58935;54.498;18.544;2023-09-08T01:16:44;16.15;84.44
71206;SHT31;58935;54.498;18.544;2023-09-08T01:19:10;16.15;84.48
71206;SHT31;58935;54.498;18.544;2023-09-08T01:21:48;16.13;84.50
71206;SHT31;58935;54.498;18.544;2023-09-08T01:24:34;16.14;84.51
71206;SHT31;58935;54.498;18.544;2023-09-08T01:27:16;16.14;84.50
71206;SHT31;58935;54.498;18.544;2023-09-08T01:29:43;16.13;84.39
71206;SHT31;58935;54.498;18.544;2023-09-08T01:32:10;16.11;84.39
71206;SHT31;58935;54.498;18.544;2023-09-08T01:34:37;16.11;84.42
71206;SHT31;58935;54.498;18.544;2023-09-08T01:37:06;16.10;84.43
71206;SHT31;58935;54.498;18.544;2023-09-08T01:39:32;16.07;84.33
71206;SHT31;58935;54.498;18.544;2023-09-08T01:41:57;16.05;84.40
71206;SHT31;58935;54.498;18.544;2023-09-08T01:44:23;16.05;84.51
71206;SHT31;58935;54.498;18.544;2023-09-08T01:46:48;16.04;84.53
71206;SHT31;58935;54.498;18.544;2023-09-08T01:49:16;16.02;84.47
71206;SHT31;58935;54.498;18.544;2023-09-08T01:51:42;15.99;84.44
71206;SHT31;58935;54.498;18.544;2023-09-08T01:54:07;15.97;84.52
71206;SHT31;58935;54.498;18.544;2023-09-08T01:56:33;15.94;84.50
71206;SHT31;58935;54.498;18.544;2023-09-08T01:58:58;15.92;84.50
71206;SHT31;58935;54.498;18.544;2023-09-08T02:01:24;15.89;84.52
71206;SHT31;58935;54.498;18.544;2023-09-08T02:03:50;15.86;84.48
71206;SHT31;58935;54.498;18.544;2023-09-08T02:06:15;15.82;84.47
71206;SHT31;58935;54.498;18.544;2023-09-08T02:08:40;15.80;84.52
71206;SHT31;58935;54.498;18.544;2023-09-08T02:11:06;15.76;84.50
71206;SHT31;58935;54.498;18.544;2023-09-08T02:13:31;15.73;84.57
71206;SHT31;58935;54.498;18.544;2023-09-08T02:15:56;15.72;84.66
71206;SHT31;58935;54.498;18.544;2023-09-08T02:18:22;15.72;84.78
71206;SHT31;58935;54.498;18.544;2023-09-08T02:20:49;15.71;84.79
71206;SHT31;58935;54.498;18.544;2023-09-08T02:23:14;15.72;84.80
71206;SHT31;58935;54.498;18.544;2023-09-08T02:25:39;15.72;84.78
71206;SHT31;58935;54.498;18.544;2023-09-08T02:28:05;15.72;84.80
71206;SHT31;58935;54.498;18.544;2023-09-08T02:30:30;15.72;84.81
71206;SHT31;58935;54.498;18.544;2023-09-08T02:32:56;15.71;84.71
71206;SHT31;58935;54.498;18.544;2023-09-08T02:35:23;15.70;84.68
71206;SHT31;58935;54.498;18.544;2023-09-08T02:37:49;15.69;84.70
71206;SHT31;58935;54.498;18.544;2023-09-08T02:40:15;15.70;84.76
71206;SHT31;58935;54.498;18.544;2023-09-08T02:42:40;15.69;84.80
71206;SHT31;58935;54.498;18.544;2023-09-08T02:45:05;15.68;84.80
71206;SHT31;58935;54.498;18.544;2023-09-08T02:47:32;15.67;84.76
71206;SHT31;58935;54.498;18.544;2023-09-08T02:49:57;15.66;84.84
71206;SHT31;58935;54.498;18.544;2023-09-08T02:52:22;15.66;84.88
71206;SHT31;58935;54.498;18.544;2023-09-08T02:54:48;15.65;84.86
71206;SHT31;58935;54.498;18.544;2023-09-08T02:57:13;15.65;84.90
71206;SHT31;58935;54.498;18.544;2023-09-08T02:59:38;15.65;84.90
71206;SHT31;58935;54.498;18.544;2023-09-08T03:02:04;15.64;84.93
71206;SHT31;58935;54.498;18.544;2023-09-08T03:04:29;15.63;84.98
71206;SHT31;58935;54.498;18.544;2023-09-08T03:06:55;15.63;84.97
71206;SHT31;58935;54.498;18.544;2023-09-08T03:09:21;15.62;84.99
71206;SHT31;58935;54.498;18.544;2023-09-08T03:11:46;15.61;85.00
71206;SHT31;58935;54.498;18.544;2023-09-08T03:14:11;15.61;85.04
71206;SHT31;58935;54.498;18.544;2023-09-08T03:16:37;15.62;85.07
71206;SHT31;58935;54.498;18.544;2023-09-08T03:19:02;15.63;85.09
71206;SHT31;58935;54.498;18.544;2023-09-08T03:21:27;15.64;85.15
71206;SHT31;58935;54.498;18.544;2023-09-08T03:23:53;15.65;85.16
71206;SHT31;58935;54.498;18.544;2023-09-08T03:26:18;15.65;85.16
71206;SHT31;58935;54.498;18.544;2023-09-08T03:28:43;15.64;85.09
71206;SHT31;58935;54.498;18.544;2023-09-08T03:31:09;15.63;85.09
71206;SHT31;58935;54.498;18.544;2023-09-08T03:33:34;15.63;85.06
71206;SHT31;58935;54.498;18.544;2023-09-08T03:36:00;15.61;85.02
71206;SHT31;58935;54.498;18.544;2023-09-08T03:38:26;15.61;85.12
71206;SHT31;58935;54.498;18.544;2023-09-08T03:40:51;15.62;85.14
71206;SHT31;58935;54.498;18.544;2023-09-08T03:43:17;15.63;85.11
71206;SHT31;58935;54.498;18.544;2023-09-08T03:45:42;15.61;85.01
71206;SHT31;58935;54.498;18.544;2023-09-08T03:48:07;15.60;84.96
71206;SHT31;58935;54.498;18.544;2023-09-08T03:50:33;15.58;84.98
71206;SHT31;58935;54.498;18.544;2023-09-08T03:52:59;15.56;85.00
71206;SHT31;58935;54.498;18.544;2023-09-08T03:55:25;15.55;85.08
71206;SHT31;58935;54.498;18.544;2023-09-08T03:57:51;15.56;85.11
71206;SHT31;58935;54.498;18.544;2023-09-08T04:00:16;15.57;85.13
71206;SHT31;58935;54.498;18.544;2023-09-08T04:02:46;15.57;85.17
71206;SHT31;58935;54.498;18.544;2023-09-08T04:05:11;15.59;85.17
71206;SHT31;58935;54.498;18.544;2023-09-08T04:07:37;15.61;85.12
71206;SHT31;58935;54.498;18.544;2023-09-08T04:10:02;15.63;85.09
71206;SHT31;58935;54.498;18.544;2023-09-08T04:12:28;15.64;85.14
71206;SHT31;58935;54.498;18.544;2023-09-08T04:14:54;15.66;85.16
71206;SHT31;58935;54.498;18.544;2023-09-08T04:17:19;15.66;85.12
71206;SHT31;58935;54.498;18.544;2023-09-08T04:19:45;15.68;85.02
71206;SHT31;58935;54.498;18.544;2023-09-08T04:22:10;15.69;85.02
71206;SHT31;58935;54.498;18.544;2023-09-08T04:24:36;15.70;85.00
71206;SHT31;58935;54.498;18.544;2023-09-08T04:27:03;15.71;85.00
71206;SHT31;58935;54.498;18.544;2023-09-08T04:29:29;15.72;85.10
71206;SHT31;58935;54.498;18.544;2023-09-08T04:31:54;15.74;85.07
71206;SHT31;58935;54.498;18.544;2023-09-08T04:34:20;15.76;85.09
71206;SHT31;58935;54.498;18.544;2023-09-08T04:36:45;15.78;85.09
71206;SHT31;58935;54.498;18.544;2023-09-08T04:39:11;15.80;85.06
71206;SHT31;58935;54.498;18.544;2023-09-08T04:41:36;15.83;85.10
71206;SHT31;58935;54.498;18.544;2023-09-08T04:44:03;15.86;85.10
71206;SHT31;58935;54.498;18.544;2023-09-08T04:46:29;15.91;85.10
71206;SHT31;58935;54.498;18.544;2023-09-08T04:48:55;15.95;85.09
71206;SHT31;58935;54.498;18.544;2023-09-08T04:51:21;16.01;85.06
71206;SHT31;58935;54.498;18.544;2023-09-08T04:53:46;16.06;85.00
71206;SHT31;58935;54.498;18.544;2023-09-08T04:56:12;16.13;84.99
71206;SHT31;58935;54.498;18.544;2023-09-08T04:58:39;16.18;84.93
71206;SHT31;58935;54.498;18.544;2023-09-08T05:01:04;16.25;84.86
71206;SHT31;58935;54.498;18.544;2023-09-08T05:03:30;16.31;84.80
71206;SHT31;58935;54.498;18.544;2023-09-08T05:05:56;16.37;84.73
71206;SHT31;58935;54.498;18.544;2023-09-08T05:08:22;16.43;84.67
71206;SHT31;58935;54.498;18.544;2023-09-08T05:10:47;16.50;84.61
71206;SHT31;58935;54.498;18.544;2023-09-08T05:13:13;16.56;84.60
71206;SHT31;58935;54.498;18.544;2023-09-08T05:15:38;16.64;84.56
71206;SHT31;58935;54.498;18.544;2023-09-08T05:18:04;16.71;84.51
71206;SHT31;58935;54.498;18.544;2023-09-08T05:20:30;16.78;84.49
71206;SHT31;58935;54.498;18.544;2023-09-08T05:22:55;16.85;84.44
71206;SHT31;58935;54.498;18.544;2023-09-08T05:25:20;16.93;84.41
71206;SHT31;58935;54.498;18.544;2023-09-08T05:27:46;17.01;84.36
71206;SHT31;58935;54.498;18.544;2023-09-08T05:30:11;17.08;84.30
71206;SHT31;58935;54.498;18.544;2023-09-08T05:32:38;17.15;84.30
71206;SHT31;58935;54.498;18.544;2023-09-08T05:35:03;17.22;84.23
71206;SHT31;58935;54.498;18.544;2023-09-08T05:37:29;17.30;84.21
71206;SHT31;58935;54.498;18.544;2023-09-08T05:39:55;17.36;84.16
71206;SHT31;58935;54.498;18.544;2023-09-08T05:42:20;17.43;84.11
71206;SHT31;58935;54.498;18.544;2023-09-08T05:44:45;17.51;84.10
71206;SHT31;58935;54.498;18.544;2023-09-08T05:47:12;17.59;84.07
71206;SHT31;58935;54.498;18.544;2023-09-08T05:49:38;17.66;84.00
71206;SHT31;58935;54.498;18.544;2023-09-08T05:52:03;17.75;84.00
71206;SHT31;58935;54.498;18.544;2023-09-08T05:54:29;17.83;83.93
71206;SHT31;58935;54.498;18.544;2023-09-08T05:56:55;17.90;83.85
71206;SHT31;58935;54.498;18.544;2023-09-08T05:59:20;17.97;83.69
71206;SHT31;58935;54.498;18.544;2023-09-08T06:01:45;18.05;83.42
71206;SHT31;58935;54.498;18.544;2023-09-08T06:04:11;18.14;83.11
71206;SHT31;58935;54.498;18.544;2023-09-08T06:06:36;18.21;82.88
71206;SHT31;58935;54.498;18.544;2023-09-08T06:09:02;18.30;82.72
71206;SHT31;58935;54.498;18.544;2023-09-08T06:11:28;18.37;82.52
71206;SHT31;58935;54.498;18.544;2023-09-08T06:13:53;18.44;82.33
71206;SHT31;58935;54.498;18.544;2023-09-08T06:16:23;18.52;82.21
71206;SHT31;58935;54.498;18.544;2023-09-08T06:18:49;18.59;82.12
71206;SHT31;58935;54.498;18.544;2023-09-08T06:21:14;18.66;81.97
71206;SHT31;58935;54.498;18.544;2023-09-08T06:23:39;18.74;81.86
71206;SHT31;58935;54.498;18.544;2023-09-08T06:26:05;18.81;81.80
71206;SHT31;58935;54.498;18.544;2023-09-08T06:28:30;18.87;81.80
71206;SHT31;58935;54.498;18.544;2023-09-08T06:30:55;18.93;81.67
71206;SHT31;58935;54.498;18.544;2023-09-08T06:33:21;19.01;81.56
71206;SHT31;58935;54.498;18.544;2023-09-08T06:35:47;19.08;81.29
71206;SHT31;58935;54.498;18.544;2023-09-08T06:38:13;19.16;81.19
71206;SHT31;58935;54.498;18.544;2023-09-08T06:40:38;19.23;81.16
71206;SHT31;58935;54.498;18.544;2023-09-08T06:43:04;19.32;81.13
71206;SHT31;58935;54.498;18.544;2023-09-08T06:45:30;19.38;81.17
71206;SHT31;58935;54.498;18.544;2023-09-08T06:47:55;19.45;81.20
71206;SHT31;58935;54.498;18.544;2023-09-08T06:50:21;19.52;81.21
71206;SHT31;58935;54.498;18.544;2023-09-08T06:52:48;19.59;81.21
71206;SHT31;58935;54.498;18.544;2023-09-08T06:55:14;19.65;81.13
71206;SHT31;58935;54.498;18.544;2023-09-08T06:57:41;19.73;81.09
71206;SHT31;58935;54.498;18.544;2023-09-08T07:00:08;19.80;80.91
71206;SHT31;58935;54.498;18.544;2023-09-08T07:02:36;19.89;80.83
71206;SHT31;58935;54.498;18.544;2023-09-08T07:05:02;19.98;80.72
71206;SHT31;58935;54.498;18.544;2023-09-08T07:07:32;20.07;80.60
71206;SHT31;58935;54.498;18.544;2023-09-08T07:09:58;20.15;80.44
71206;SHT31;58935;54.498;18.544;2023-09-08T07:12:24;20.24;80.41
71206;SHT31;58935;54.498;18.544;2023-09-08T07:14:49;20.34;80.41
71206;SHT31;58935;54.498;18.544;2023-09-08T07:17:15;20.43;80.30
71206;SHT31;58935;54.498;18.544;2023-09-08T07:19:40;20.51;80.10
71206;SHT31;58935;54.498;18.544;2023-09-08T07:22:05;20.60;79.77
71206;SHT31;58935;54.498;18.544;2023-09-08T07:24:31;20.70;79.51
71206;SHT31;58935;54.498;18.544;2023-09-08T07:26:56;20.80;79.26
71206;SHT31;58935;54.498;18.544;2023-09-08T07:29:22;20.90;79.11
71206;SHT31;58935;54.498;18.544;2023-09-08T07:31:47;21.02;79.03
71206;SHT31;58935;54.498;18.544;2023-09-08T07:34:12;21.12;78.78
71206;SHT31;58935;54.498;18.544;2023-09-08T07:36:38;21.21;78.57
71206;SHT31;58935;54.498;18.544;2023-09-08T07:39:03;21.31;78.26
71206;SHT31;58935;54.498;18.544;2023-09-08T07:41:29;21.40;77.84
71206;SHT31;58935;54.498;18.544;2023-09-08T07:43:54;21.51;77.27
71206;SHT31;58935;54.498;18.544;2023-09-08T07:46:20;21.63;77.23
71206;SHT31;58935;54.498;18.544;2023-09-08T07:48:45;21.72;76.86
71206;SHT31;58935;54.498;18.544;2023-09-08T07:51:10;21.83;76.61
71206;SHT31;58935;54.498;18.544;2023-09-08T07:53:36;21.91;75.93
71206;SHT31;58935;54.498;18.544;2023-09-08T07:56:01;21.95;75.30
71206;SHT31;58935;54.498;18.544;2023-09-08T07:58:26;21.99;74.88
71206;SHT31;58935;54.498;18.544;2023-09-08T08:00:52;22.01;74.91
71206;SHT31;58935;54.498;18.544;2023-09-08T08:03:17;22.06;74.61
71206;SHT31;58935;54.498;18.544;2023-09-08T08:05:42;22.08;74.13
71206;SHT31;58935;54.498;18.544;2023-09-08T08:08:08;22.10;73.75
71206;SHT31;58935;54.498;18.544;2023-09-08T08:10:34;22.12;73.38
71206;SHT31;58935;54.498;18.544;2023-09-08T08:13:00;22.14;73.08
71206;SHT31;58935;54.498;18.544;2023-09-08T08:18:01;22.23;72.72
71206;SHT31;58935;54.498;18.544;2023-09-08T08:20:29;22.26;72.78
71206;SHT31;58935;54.498;18.544;2023-09-08T08:22:54;22.31;72.78
71206;SHT31;58935;54.498;18.544;2023-09-08T08:25:20;22.35;72.41
71206;SHT31;58935;54.498;18.544;2023-09-08T08:27:45;22.38;72.30
71206;SHT31;58935;54.498;18.544;2023-09-08T08:30:10;22.42;72.30
71206;SHT31;58935;54.498;18.544;2023-09-08T08:32:36;22.45;72.14
71206;SHT31;58935;54.498;18.544;2023-09-08T08:35:01;22.48;71.78
71206;SHT31;58935;54.498;18.544;2023-09-08T08:37:29;22.51;71.69
71206;SHT31;58935;54.498;18.544;2023-09-08T08:39:55;22.56;71.54
71206;SHT31;58935;54.498;18.544;2023-09-08T08:42:20;22.58;71.07
71206;SHT31;58935;54.498;18.544;2023-09-08T08:44:47;22.60;70.97
71206;SHT31;58935;54.498;18.544;2023-09-08T08:47:15;22.60;70.72
71206;SHT31;58935;54.498;18.544;2023-09-08T08:49:43;22.59;70.96
71206;SHT31;58935;54.498;18.544;2023-09-08T08:52:11;22.57;71.24
71206;SHT31;58935;54.498;18.544;2023-09-08T08:54:39;22.57;71.03
71206;SHT31;58935;54.498;18.544;2023-09-08T08:57:05;22.56;70.79
71206;SHT31;58935;54.498;18.544;2023-09-08T08:59:32;22.52;70.07
71206;SHT31;58935;54.498;18.544;2023-09-08T09:01:59;22.43;69.48
71206;SHT31;58935;54.498;18.544;2023-09-08T09:04:26;22.35;70.03
71206;SHT31;58935;54.498;18.544;2023-09-08T09:06:53;22.29;70.67
71206;SHT31;58935;54.498;18.544;2023-09-08T09:09:19;22.24;70.80
71206;SHT31;58935;54.498;18.544;2023-09-08T09:11:46;22.22;71.29
71206;SHT31;58935;54.498;18.544;2023-09-08T09:14:11;22.25;71.38
71206;SHT31;58935;54.498;18.544;2023-09-08T09:19:07;22.35;70.85
71206;SHT31;58935;54.498;18.544;2023-09-08T09:21:41;22.36;70.86
71206;SHT31;58935;54.498;18.544;2023-09-08T09:24:14;22.40;70.93
71206;SHT31;58935;54.498;18.544;2023-09-08T09:26:41;22.44;70.90
71206;SHT31;58935;54.498;18.544;2023-09-08T09:31:49;22.54;71.05
71206;SHT31;58935;54.498;18.544;2023-09-08T09:34:20;22.61;70.75
71206;SHT31;58935;54.498;18.544;2023-09-08T09:36:47;22.65;70.57
71206;SHT31;58935;54.498;18.544;2023-09-08T09:39:17;22.71;70.51
71206;SHT31;58935;54.498;18.544;2023-09-08T09:41:46;22.77;70.06
71206;SHT31;58935;54.498;18.544;2023-09-08T09:44:13;22.81;69.90
71206;SHT31;58935;54.498;18.544;2023-09-08T09:46:42;22.86;69.34
71206;SHT31;58935;54.498;18.544;2023-09-08T09:49:10;22.86;69.50
71206;SHT31;58935;54.498;18.544;2023-09-08T09:51:40;22.88;69.29
71206;SHT31;58935;54.498;18.544;2023-09-08T09:54:07;22.87;69.06
71206;SHT31;58935;54.498;18.544;2023-09-08T09:56:33;22.91;69.39
71206;SHT31;58935;54.498;18.544;2023-09-08T09:59:03;22.96;68.83
71206;SHT31;58935;54.498;18.544;2023-09-08T10:01:29;23.00;68.82
71206;SHT31;58935;54.498;18.544;2023-09-08T10:03:56;23.03;68.78
71206;SHT31;58935;54.498;18.544;2023-09-08T10:06:22;23.07;68.35
71206;SHT31;58935;54.498;18.544;2023-09-08T10:12:11;23.09;67.52
71206;SHT31;58935;54.498;18.544;2023-09-08T10:14:41;23.10;67.19
71206;SHT31;58935;54.498;18.544;2023-09-08T10:17:08;23.10;66.78
71206;SHT31;58935;54.498;18.544;2023-09-08T10:19:45;23.12;66.58
71206;SHT31;58935;54.498;18.544;2023-09-08T10:22:16;23.14;66.18
71206;SHT31;58935;54.498;18.544;2023-09-08T10:24:49;23.15;65.43
71206;SHT31;58935;54.498;18.544;2023-09-08T10:27:20;23.18;65.38
71206;SHT31;58935;54.498;18.544;2023-09-08T10:29:48;23.24;65.26
71206;SHT31;58935;54.498;18.544;2023-09-08T10:32:15;23.25;64.61
71206;SHT31;58935;54.498;18.544;2023-09-08T10:34:43;23.25;64.80
71206;SHT31;58935;54.498;18.544;2023-09-08T10:39:44;23.28;63.96
71206;SHT31;58935;54.498;18.544;2023-09-08T10:47:24;23.36;62.80
71206;SHT31;58935;54.498;18.544;2023-09-08T10:49:51;23.37;61.98
71206;SHT31;58935;54.498;18.544;2023-09-08T10:52:21;23.40;62.53
71206;SHT31;58935;54.498;18.544;2023-09-08T10:54:48;23.45;62.13
71206;SHT31;58935;54.498;18.544;2023-09-08T10:57:17;23.49;61.20
71206;SHT31;58935;54.498;18.544;2023-09-08T10:59:55;23.48;60.98
71206;SHT31;58935;54.498;18.544;2023-09-08T11:04:57;23.42;60.68
71206;SHT31;58935;54.498;18.544;2023-09-08T11:07:23;23.43;61.49
71206;SHT31;58935;54.498;18.544;2023-09-08T11:09:50;23.48;61.56
71206;SHT31;58935;54.498;18.544;2023-09-08T11:12:16;23.55;61.62
71206;SHT31;58935;54.498;18.544;2023-09-08T11:14:43;23.57;61.11
71206;SHT31;58935;54.498;18.544;2023-09-08T11:17:09;23.59;60.91
71206;SHT31;58935;54.498;18.544;2023-09-08T11:22:08;23.67;61.87
71206;SHT31;58935;54.498;18.544;2023-09-08T11:24:35;23.69;62.05
71206;SHT31;58935;54.498;18.544;2023-09-08T11:27:00;23.72;62.39
71206;SHT31;58935;54.498;18.544;2023-09-08T11:29:26;23.77;61.99
71206;SHT31;58935;54.498;18.544;2023-09-08T11:31:52;23.77;62.73
71206;SHT31;58935;54.498;18.544;2023-09-08T11:34:20;23.77;63.35
71206;SHT31;58935;54.498;18.544;2023-09-08T11:36:46;23.76;63.19
71206;SHT31;58935;54.498;18.544;2023-09-08T11:39:11;23.77;63.70
71206;SHT31;58935;54.498;18.544;2023-09-08T11:41:36;23.78;63.71
71206;SHT31;58935;54.498;18.544;2023-09-08T11:44:02;23.82;62.30
71206;SHT31;58935;54.498;18.544;2023-09-08T11:46:28;23.84;62.44
71206;SHT31;58935;54.498;18.544;2023-09-08T11:48:53;23.89;62.76
71206;SHT31;58935;54.498;18.544;2023-09-08T11:53:48;23.93;61.42
71206;SHT31;58935;54.498;18.544;2023-09-08T11:56:14;23.95;61.17
71206;SHT31;58935;54.498;18.544;2023-09-08T11:58:40;23.98;61.45
71206;SHT31;58935;54.498;18.544;2023-09-08T12:01:08;24.02;61.87
71206;SHT31;58935;54.498;18.544;2023-09-08T12:03:34;24.07;61.76
71206;SHT31;58935;54.498;18.544;2023-09-08T12:06:16;24.10;61.66
71206;SHT31;58935;54.498;18.544;2023-09-08T12:08:42;24.16;62.45
71206;SHT31;58935;54.498;18.544;2023-09-08T12:11:09;24.23;62.50
71206;SHT31;58935;54.498;18.544;2023-09-08T12:13:35;24.28;62.62
71206;SHT31;58935;54.498;18.544;2023-09-08T12:16:00;24.32;62.39
71206;SHT31;58935;54.498;18.544;2023-09-08T12:23:30;24.39;62.97
71206;SHT31;58935;54.498;18.544;2023-09-08T12:25:56;24.47;62.59
71206;SHT31;58935;54.498;18.544;2023-09-08T12:28:22;24.52;61.96
71206;SHT31;58935;54.498;18.544;2023-09-08T12:30:48;24.56;61.60
71206;SHT31;58935;54.498;18.544;2023-09-08T12:33:15;24.52;61.01
71206;SHT31;58935;54.498;18.544;2023-09-08T12:35:43;24.51;62.08
71206;SHT31;58935;54.498;18.544;2023-09-08T12:38:10;24.48;62.21
71206;SHT31;58935;54.498;18.544;2023-09-08T12:40:35;24.43;62.69
71206;SHT31;58935;54.498;18.544;2023-09-08T12:43:03;24.43;63.10
71206;SHT31;58935;54.498;18.544;2023-09-08T12:45:29;24.46;63.42
71206;SHT31;58935;54.498;18.544;2023-09-08T12:47:57;24.50;63.44
71206;SHT31;58935;54.498;18.544;2023-09-08T12:50:26;24.57;63.74
71206;SHT31;58935;54.498;18.544;2023-09-08T12:52:52;24.64;63.59
71206;SHT31;58935;54.498;18.544;2023-09-08T12:55:18;24.69;63.22
71206;SHT31;58935;54.498;18.544;2023-09-08T12:57:44;24.73;63.55
71206;SHT31;58935;54.498;18.544;2023-09-08T13:00:09;24.78;63.31
71206;SHT31;58935;54.498;18.544;2023-09-08T13:05:57;24.86;62.44
71206;SHT31;58935;54.498;18.544;2023-09-08T13:08:23;24.87;61.47
71206;SHT31;58935;54.498;18.544;2023-09-08T13:10:48;24.85;61.27
71206;SHT31;58935;54.498;18.544;2023-09-08T13:13:13;24.87;61.40
71206;SHT31;58935;54.498;18.544;2023-09-08T13:15:38;24.83;60.07
71206;SHT31;58935;54.498;18.544;2023-09-08T13:18:04;24.82;60.26
71206;SHT31;58935;54.498;18.544;2023-09-08T13:20:30;24.81;60.30
71206;SHT31;58935;54.498;18.544;2023-09-08T13:22:55;24.81;60.34
71206;SHT31;58935;54.498;18.544;2023-09-08T13:25:20;24.81;60.47
71206;SHT31;58935;54.498;18.544;2023-09-08T13:27:46;24.82;60.53
71206;SHT31;58935;54.498;18.544;2023-09-08T13:30:13;24.86;60.40
71206;SHT31;58935;54.498;18.544;2023-09-08T13:32:40;24.90;60.50
71206;SHT31;58935;54.498;18.544;2023-09-08T13:35:07;24.97;60.79
71206;SHT31;58935;54.498;18.544;2023-09-08T13:37:33;25.06;60.14
71206;SHT31;58935;54.498;18.544;2023-09-08T13:40:00;25.10;60.31
71206;SHT31;58935;54.498;18.544;2023-09-08T13:42:26;25.16;59.77
71206;SHT31;58935;54.498;18.544;2023-09-08T13:44:51;25.21;59.35
71206;SHT31;58935;54.498;18.544;2023-09-08T13:47:17;25.20;58.97
71206;SHT31;58935;54.498;18.544;2023-09-08T13:49:42;25.15;58.46
71206;SHT31;58935;54.498;18.544;2023-09-08T13:52:07;25.09;57.77
71206;SHT31;58935;54.498;18.544;2023-09-08T13:54:33;25.01;58.11
71206;SHT31;58935;54.498;18.544;2023-09-08T13:57:00;24.96;59.27
71206;SHT31;58935;54.498;18.544;2023-09-08T13:59:29;24.92;58.66
71206;SHT31;58935;54.498;18.544;2023-09-08T14:01:55;24.86;58.61
71206;SHT31;58935;54.498;18.544;2023-09-08T14:04:22;24.82;58.46
71206;SHT31;58935;54.498;18.544;2023-09-08T14:06:49;24.87;58.77
71206;SHT31;58935;54.498;18.544;2023-09-08T14:09:14;24.93;58.64
71206;SHT31;58935;54.498;18.544;2023-09-08T14:11:40;24.97;58.70
71206;SHT31;58935;54.498;18.544;2023-09-08T14:14:06;25.01;58.55
71206;SHT31;58935;54.498;18.544;2023-09-08T14:16:32;25.00;58.78
71206;SHT31;58935;54.498;18.544;2023-09-08T14:18:57;25.00;58.68
71206;SHT31;58935;54.498;18.544;2023-09-08T14:21:22;24.99;59.05
71206;SHT31;58935;54.498;18.544;2023-09-08T14:23:48;24.98;58.56
71206;SHT31;58935;54.498;18.544;2023-09-08T14:26:13;24.91;57.55
71206;SHT31;58935;54.498;18.544;2023-09-08T14:28:38;24.82;58.27
71206;SHT31;58935;54.498;18.544;2023-09-08T14:31:04;24.77;59.17
71206;SHT31;58935;54.498;18.544;2023-09-08T14:33:30;24.72;58.94
71206;SHT31;58935;54.498;18.544;2023-09-08T14:35:55;24.68;59.24
71206;SHT31;58935;54.498;18.544;2023-09-08T14:38:21;24.65;60.07
71206;SHT31;58935;54.498;18.544;2023-09-08T14:43:20;24.57;60.09
71206;SHT31;58935;54.498;18.544;2023-09-08T14:45:45;24.54;60.70
71206;SHT31;58935;54.498;18.544;2023-09-08T14:48:10;24.49;60.65
71206;SHT31;58935;54.498;18.544;2023-09-08T14:50:35;24.47;61.20
71206;SHT31;58935;54.498;18.544;2023-09-08T14:53:01;24.45;60.22
71206;SHT31;58935;54.498;18.544;2023-09-08T14:55:27;24.44;60.38
71206;SHT31;58935;54.498;18.544;2023-09-08T14:57:52;24.42;60.01
71206;SHT31;58935;54.498;18.544;2023-09-08T15:00:18;24.42;59.72
71206;SHT31;58935;54.498;18.544;2023-09-08T15:02:43;24.42;59.85
71206;SHT31;58935;54.498;18.544;2023-09-08T15:05:10;24.39;59.27
71206;SHT31;58935;54.498;18.544;2023-09-08T15:07:35;24.36;59.80
71206;SHT31;58935;54.498;18.544;2023-09-08T15:10:01;24.34;59.73
71206;SHT31;58935;54.498;18.544;2023-09-08T15:12:26;24.31;58.95
71206;SHT31;58935;54.498;18.544;2023-09-08T15:14:51;24.26;58.98
71206;SHT31;58935;54.498;18.544;2023-09-08T15:17:17;24.24;59.13
71206;SHT31;58935;54.498;18.544;2023-09-08T15:19:43;24.23;59.33
71206;SHT31;58935;54.498;18.544;2023-09-08T15:22:08;24.24;59.50
71206;SHT31;58935;54.498;18.544;2023-09-08T15:24:33;24.25;58.91
71206;SHT31;58935;54.498;18.544;2023-09-08T15:26:59;24.25;58.76
71206;SHT31;58935;54.498;18.544;2023-09-08T15:29:25;24.26;59.47
71206;SHT31;58935;54.498;18.544;2023-09-08T15:31:51;24.29;59.66
71206;SHT31;58935;54.498;18.544;2023-09-08T15:34:16;24.29;59.85
71206;SHT31;58935;54.498;18.544;2023-09-08T15:36:41;24.27;60.11
71206;SHT31;58935;54.498;18.544;2023-09-08T15:39:07;24.29;60.50
71206;SHT31;58935;54.498;18.544;2023-09-08T15:41:32;24.30;60.49
71206;SHT31;58935;54.498;18.544;2023-09-08T15:43:57;24.31;60.57
71206;SHT31;58935;54.498;18.544;2023-09-08T15:46:23;24.32;61.03